sensor_id;sensor_type;location;lat;lon;timestamp;pressure;altitude;pressure_sealevel;temperature;humidity
75424;BME280;64005;55.160;36.002;2023-01-30T00:01:14;98262.75;;;-2.20;75.85
75424;BME280;64005;55.160;36.002;2023-01-30T00:03:41;98264.94;;;-2.22;76.22
75424;BME280;64005;55.160;36.002;2023-01-30T00:06:09;98260.56;;;-2.23;76.27
75424;BME280;64005;55.160;36.002;2023-01-30T00:08:37;98262.75;;;-2.20;76.36
75424;BME280;64005;55.160;36.002;2023-01-30T00:11:08;98262.75;;;-2.20;76.21
75424;BME280;64005;55.160;36.002;2023-01-30T00:13:36;98270.13;;;-2.15;76.14
75424;BME280;64005;55.160;36.002;2023-01-30T00:16:05;98269.56;;;-2.17;76.16
75424;BME280;64005;55.160;36.002;2023-01-30T00:18:34;98258.66;;;-2.17;76.18
75424;BME280;64005;55.160;36.002;2023-01-30T00:21:03;98266.00;;;-2.18;75.98
75424;BME280;64005;55.160;36.002;2023-01-30T00:23:32;98260.56;;;-2.18;75.95
75424;BME280;64005;55.160;36.002;2023-01-30T00:26:00;98258.09;;;-2.19;76.56
75424;BME280;64005;55.160;36.002;2023-01-30T00:28:30;98255.38;;;-2.19;76.22
75424;BME280;64005;55.160;36.002;2023-01-30T00:30:57;98251.31;;;-2.17;75.98
75424;BME280;64005;55.160;36.002;2023-01-30T00:33:26;98256.19;;;-2.19;76.23
75424;BME280;64005;55.160;36.002;2023-01-30T00:35:55;98179.66;;;-2.63;76.33
75424;BME280;64005;55.160;36.002;2023-01-30T00:38:24;98253.78;;;-2.15;75.96
75424;BME280;64005;55.160;36.002;2023-01-30T00:40:51;98246.94;;;-2.13;76.53
75424;BME280;64005;55.160;36.002;2023-01-30T00:43:19;98241.78;;;-2.14;76.12
75424;BME280;64005;55.160;36.002;2023-01-30T00:46:11;98240.16;;;-2.20;76.47
75424;BME280;64005;55.160;36.002;2023-01-30T00:48:56;98229.22;;;-2.25;76.22
75424;BME280;64005;55.160;36.002;2023-01-30T00:51:23;98242.03;;;-2.16;76.16
75424;BME280;64005;55.160;36.002;2023-01-30T00:53:51;98231.16;;;-2.16;76.33
75424;BME280;64005;55.160;36.002;2023-01-30T00:56:18;98240.97;;;-2.15;76.34
75424;BME280;64005;55.160;36.002;2023-01-30T00:58:46;98246.94;;;-2.18;76.24
75424;BME280;64005;55.160;36.002;2023-01-30T01:01:15;98234.44;;;-2.14;75.93
75424;BME280;64005;55.160;36.002;2023-01-30T01:03:43;98225.44;;;-2.14;76.36
75424;BME280;64005;55.160;36.002;2023-01-30T01:06:10;98228.97;;;-2.14;76.37
75424;BME280;64005;55.160;36.002;2023-01-30T01:08:38;98226.78;;;-2.12;76.03
75424;BME280;64005;55.160;36.002;2023-01-30T01:11:05;98217.53;;;-2.11;75.76
75424;BME280;64005;55.160;36.002;2023-01-30T01:13:33;98220.25;;;-2.11;75.79
75424;BME280;64005;55.160;36.002;2023-01-30T01:16:00;98218.34;;;-2.10;75.87
75424;BME280;64005;55.160;36.002;2023-01-30T01:18:29;98208.53;;;-2.11;75.94
75424;BME280;64005;55.160;36.002;2023-01-30T01:20:58;98203.91;;;-2.11;76.18
75424;BME280;64005;55.160;36.002;2023-01-30T01:23:27;98196.28;;;-2.09;75.80
75424;BME280;64005;55.160;36.002;2023-01-30T01:25:54;98194.09;;;-2.12;76.48
75424;BME280;64005;55.160;36.002;2023-01-30T01:28:22;98190.84;;;-2.14;76.07
75424;BME280;64005;55.160;36.002;2023-01-30T01:30:50;98184.56;;;-2.14;76.09
75424;BME280;64005;55.160;36.002;2023-01-30T01:33:17;98180.47;;;-2.17;76.29
75424;BME280;64005;55.160;36.002;2023-01-30T01:35:46;98179.94;;;-2.14;76.04
75424;BME280;64005;55.160;36.002;2023-01-30T01:38:14;98174.19;;;-2.12;76.14
75424;BME280;64005;55.160;36.002;2023-01-30T01:40:45;98180.75;;;-2.13;76.02
75424;BME280;64005;55.160;36.002;2023-01-30T01:43:33;98163.31;;;-2.22;75.94
75424;BME280;64005;55.160;36.002;2023-01-30T01:46:05;98152.16;;;-2.21;75.79
75424;BME280;64005;55.160;36.002;2023-01-30T01:48:38;98130.09;;;-2.29;76.25
75424;BME280;64005;55.160;36.002;2023-01-30T01:51:13;98145.91;;;-2.21;75.89
75424;BME280;64005;55.160;36.002;2023-01-30T01:53:44;98138.00;;;-2.23;76.20
75424;BME280;64005;55.160;36.002;2023-01-30T01:56:15;98100.44;;;-2.46;76.38
75424;BME280;64005;55.160;36.002;2023-01-30T01:58:47;98131.19;;;-2.20;75.94
75424;BME280;64005;55.160;36.002;2023-01-30T02:01:16;98123.53;;;-2.18;76.15
75424;BME280;64005;55.160;36.002;2023-01-30T02:03:46;98021.00;;;-2.94;76.47
75424;BME280;64005;55.160;36.002;2023-01-30T02:06:17;98133.63;;;-2.24;75.85
75424;BME280;64005;55.160;36.002;2023-01-30T02:08:49;98120.81;;;-2.23;76.19
75424;BME280;64005;55.160;36.002;2023-01-30T02:11:23;98072.13;;;-2.55;76.37
75424;BME280;64005;55.160;36.002;2023-01-30T02:13:54;98105.59;;;-2.34;76.50
75424;BME280;64005;55.160;36.002;2023-01-30T02:16:23;98119.47;;;-2.26;76.25
75424;BME280;64005;55.160;36.002;2023-01-30T02:18:51;98116.47;;;-2.24;75.89
75424;BME280;64005;55.160;36.002;2023-01-30T02:21:42;98110.19;;;-2.25;76.07
75424;BME280;64005;55.160;36.002;2023-01-30T02:24:50;98102.88;;;-2.29;76.57
75424;BME280;64005;55.160;36.002;2023-01-30T02:27:46;98027.53;;;-2.74;76.26
75424;BME280;64005;55.160;36.002;2023-01-30T02:33:31;98065.31;;;-2.48;76.41
75424;BME280;64005;55.160;36.002;2023-01-30T02:36:12;98053.91;;;-2.55;76.26
75424;BME280;64005;55.160;36.002;2023-01-30T02:38:49;98079.44;;;-2.35;76.49
75424;BME280;64005;55.160;36.002;2023-01-30T02:41:25;98078.38;;;-2.34;76.47
75424;BME280;64005;55.160;36.002;2023-01-30T02:44:01;98074.56;;;-2.33;76.69
75424;BME280;64005;55.160;36.002;2023-01-30T02:46:41;98065.84;;;-2.35;76.17
75424;BME280;64005;55.160;36.002;2023-01-30T02:49:19;98066.38;;;-2.33;76.00
75424;BME280;64005;55.160;36.002;2023-01-30T02:51:50;98046.78;;;-2.35;76.29
75424;BME280;64005;55.160;36.002;2023-01-30T02:54:18;98048.38;;;-2.24;76.39
75424;BME280;64005;55.160;36.002;2023-01-30T02:56:47;98054.09;;;-2.26;76.24
75424;BME280;64005;55.160;36.002;2023-01-30T02:59:21;98045.94;;;-2.31;76.03
75424;BME280;64005;55.160;36.002;2023-01-30T03:02:22;98041.31;;;-2.30;76.03
75424;BME280;64005;55.160;36.002;2023-01-30T03:05:21;98036.97;;;-2.26;76.28
75424;BME280;64005;55.160;36.002;2023-01-30T03:07:57;98037.25;;;-2.38;76.59
75424;BME280;64005;55.160;36.002;2023-01-30T03:10:41;98042.41;;;-2.36;76.62
75424;BME280;64005;55.160;36.002;2023-01-30T03:13:15;98018.22;;;-2.48;76.92
75424;BME280;64005;55.160;36.002;2023-01-30T03:15:49;98035.06;;;-2.36;76.81
75424;BME280;64005;55.160;36.002;2023-01-30T03:18:19;98031.25;;;-2.35;76.61
75424;BME280;64005;55.160;36.002;2023-01-30T03:20:49;98021.19;;;-2.34;76.79
75424;BME280;64005;55.160;36.002;2023-01-30T03:23:17;98026.06;;;-2.31;76.54
75424;BME280;64005;55.160;36.002;2023-01-30T03:25:45;98014.63;;;-2.28;76.26
75424;BME280;64005;55.160;36.002;2023-01-30T03:28:18;98005.09;;;-2.31;76.24
75424;BME280;64005;55.160;36.002;2023-01-30T03:30:46;98006.44;;;-2.28;76.32
75424;BME280;64005;55.160;36.002;2023-01-30T03:33:14;98000.72;;;-2.27;76.49
75424;BME280;64005;55.160;36.002;2023-01-30T03:35:41;97992.25;;;-2.25;76.92
75424;BME280;64005;55.160;36.002;2023-01-30T03:38:10;97990.66;;;-2.26;76.45
75424;BME280;64005;55.160;36.002;2023-01-30T03:40:38;97992.84;;;-2.28;76.37
75424;BME280;64005;55.160;36.002;2023-01-30T03:43:05;97993.88;;;-2.24;76.47
75424;BME280;64005;55.160;36.002;2023-01-30T03:45:34;97973.47;;;-2.22;76.61
75424;BME280;64005;55.160;36.002;2023-01-30T03:48:01;97971.00;;;-2.23;76.21
75424;BME280;64005;55.160;36.002;2023-01-30T03:50:29;97974.00;;;-2.25;76.91
75424;BME280;64005;55.160;36.002;2023-01-30T03:52:56;97971.28;;;-2.25;76.79
75424;BME280;64005;55.160;36.002;2023-01-30T03:55:25;97956.84;;;-2.25;76.57
75424;BME280;64005;55.160;36.002;2023-01-30T03:57:54;97959.06;;;-2.27;76.77
75424;BME280;64005;55.160;36.002;2023-01-30T04:00:23;97960.69;;;-2.26;76.82
75424;BME280;64005;55.160;36.002;2023-01-30T04:02:50;97956.34;;;-2.27;76.90
75424;BME280;64005;55.160;36.002;2023-01-30T04:05:19;97948.72;;;-2.30;76.70
75424;BME280;64005;55.160;36.002;2023-01-30T04:07:47;97940.50;;;-2.25;76.37
75424;BME280;64005;55.160;36.002;2023-01-30T04:10:15;97931.25;;;-2.24;76.78
75424;BME280;64005;55.160;36.002;2023-01-30T04:12:46;97938.31;;;-2.23;76.23
75424;BME280;64005;55.160;36.002;2023-01-30T04:15:14;97930.44;;;-2.25;76.68
75424;BME280;64005;55.160;36.002;2023-01-30T04:17:42;97927.19;;;-2.27;76.46
75424;BME280;64005;55.160;36.002;2023-01-30T04:20:10;97928.56;;;-2.29;76.81
75424;BME280;64005;55.160;36.002;2023-01-30T04:22:38;97932.09;;;-2.29;76.96
75424;BME280;64005;55.160;36.002;2023-01-30T04:25:06;97912.47;;;-2.31;76.84
75424;BME280;64005;55.160;36.002;2023-01-30T04:27:33;97912.75;;;-2.32;77.22
75424;BME280;64005;55.160;36.002;2023-01-30T04:30:03;97915.22;;;-2.31;77.19
75424;BME280;64005;55.160;36.002;2023-01-30T04:32:31;97903.22;;;-2.30;76.88
75424;BME280;64005;55.160;36.002;2023-01-30T04:34:58;97903.78;;;-2.28;77.13
75424;BME280;64005;55.160;36.002;2023-01-30T04:37:26;97916.28;;;-2.32;77.08
75424;BME280;64005;55.160;36.002;2023-01-30T04:39:53;97907.03;;;-2.31;77.32
75424;BME280;64005;55.160;36.002;2023-01-30T04:42:21;97902.13;;;-2.29;77.32
75424;BME280;64005;55.160;36.002;2023-01-30T04:44:48;97901.56;;;-2.26;76.81
75424;BME280;64005;55.160;36.002;2023-01-30T04:47:17;97891.78;;;-2.27;76.96
75424;BME280;64005;55.160;36.002;2023-01-30T04:49:45;97891.78;;;-2.27;77.16
75424;BME280;64005;55.160;36.002;2023-01-30T04:52:12;97893.38;;;-2.26;77.41
75424;BME280;64005;55.160;36.002;2023-01-30T04:54:40;97886.03;;;-2.25;77.39
75424;BME280;64005;55.160;36.002;2023-01-30T04:57:07;97883.03;;;-2.24;77.05
75424;BME280;64005;55.160;36.002;2023-01-30T04:59:34;97874.59;;;-2.22;77.49
75424;BME280;64005;55.160;36.002;2023-01-30T05:02:02;97871.59;;;-2.21;77.27
75424;BME280;64005;55.160;36.002;2023-01-30T05:04:31;97870.78;;;-2.21;77.23
75424;BME280;64005;55.160;36.002;2023-01-30T05:06:58;97865.06;;;-2.20;77.27
75424;BME280;64005;55.160;36.002;2023-01-30T05:09:26;97849.22;;;-2.18;77.21
75424;BME280;64005;55.160;36.002;2023-01-30T05:11:53;97854.94;;;-2.14;77.16
75424;BME280;64005;55.160;36.002;2023-01-30T05:14:21;97844.84;;;-2.14;77.33
75424;BME280;64005;55.160;36.002;2023-01-30T05:16:49;97836.97;;;-2.15;77.21
75424;BME280;64005;55.160;36.002;2023-01-30T05:19:16;97834.22;;;-2.15;77.15
75424;BME280;64005;55.160;36.002;2023-01-30T05:21:45;97830.41;;;-2.14;76.88
75424;BME280;64005;55.160;36.002;2023-01-30T05:24:13;97839.69;;;-2.15;77.18
75424;BME280;64005;55.160;36.002;2023-01-30T05:26:42;97837.22;;;-2.17;77.40
75424;BME280;64005;55.160;36.002;2023-01-30T05:29:09;97823.34;;;-2.15;77.42
75424;BME280;64005;55.160;36.002;2023-01-30T05:31:37;97806.78;;;-2.24;77.52
75424;BME280;64005;55.160;36.002;2023-01-30T05:34:04;97821.69;;;-2.16;77.32
75424;BME280;64005;55.160;36.002;2023-01-30T05:36:32;97818.75;;;-2.20;77.27
75424;BME280;64005;55.160;36.002;2023-01-30T05:39:01;97821.44;;;-2.15;77.45
75424;BME280;64005;55.160;36.002;2023-01-30T05:41:29;97818.44;;;-2.13;77.11
75424;BME280;64005;55.160;36.002;2023-01-30T05:43:57;97827.16;;;-2.16;77.22
75424;BME280;64005;55.160;36.002;2023-01-30T05:46:24;97823.63;;;-2.17;77.67
75424;BME280;64005;55.160;36.002;2023-01-30T05:48:52;97819.53;;;-2.14;77.37
75424;BME280;64005;55.160;36.002;2023-01-30T05:51:22;97820.03;;;-2.12;77.16
75424;BME280;64005;55.160;36.002;2023-01-30T05:53:50;97810.75;;;-2.11;77.58
75424;BME280;64005;55.160;36.002;2023-01-30T05:56:19;97814.03;;;-2.09;77.38
75424;BME280;64005;55.160;36.002;2023-01-30T05:58:52;97808.59;;;-2.09;77.22
75424;BME280;64005;55.160;36.002;2023-01-30T06:01:21;97813.16;;;-2.05;77.36
75424;BME280;64005;55.160;36.002;2023-01-30T06:03:49;97810.16;;;-2.03;77.35
75424;BME280;64005;55.160;36.002;2023-01-30T06:06:16;97794.63;;;-2.03;77.65
75424;BME280;64005;55.160;36.002;2023-01-30T06:08:44;97803.03;;;-1.99;77.17
75424;BME280;64005;55.160;36.002;2023-01-30T06:11:13;97806.84;;;-1.95;76.91
75424;BME280;64005;55.160;36.002;2023-01-30T06:13:43;97808.47;;;-1.94;77.04
75424;BME280;64005;55.160;36.002;2023-01-30T06:16:12;97794.59;;;-1.97;77.60
75424;BME280;64005;55.160;36.002;2023-01-30T06:18:40;97805.69;;;-1.89;77.00
75424;BME280;64005;55.160;36.002;2023-01-30T06:21:08;97801.59;;;-1.86;77.09
75424;BME280;64005;55.160;36.002;2023-01-30T06:23:36;97798.63;;;-1.90;76.95
75424;BME280;64005;55.160;36.002;2023-01-30T06:26:04;97789.56;;;-1.85;77.21
75424;BME280;64005;55.160;36.002;2023-01-30T06:28:31;97783.78;;;-1.79;76.75
75424;BME280;64005;55.160;36.002;2023-01-30T06:31:00;97767.50;;;-1.84;77.16
75424;BME280;64005;55.160;36.002;2023-01-30T06:33:28;97782.97;;;-1.74;76.88
75424;BME280;64005;55.160;36.002;2023-01-30T06:35:55;97781.28;;;-1.70;76.79
75424;BME280;64005;55.160;36.002;2023-01-30T06:38:23;97769.00;;;-1.68;76.54
75424;BME280;64005;55.160;36.002;2023-01-30T06:40:50;97765.94;;;-1.61;77.00
75424;BME280;64005;55.160;36.002;2023-01-30T06:43:18;97761.78;;;-1.58;76.67
75424;BME280;64005;55.160;36.002;2023-01-30T06:45:45;97762.88;;;-1.54;76.21
75424;BME280;64005;55.160;36.002;2023-01-30T06:48:14;97754.41;;;-1.53;76.94
75424;BME280;64005;55.160;36.002;2023-01-30T06:50:42;97754.63;;;-1.49;76.38
75424;BME280;64005;55.160;36.002;2023-01-30T06:53:09;97756.19;;;-1.43;76.53
75424;BME280;64005;55.160;36.002;2023-01-30T06:55:37;97756.19;;;-1.43;76.21
75424;BME280;64005;55.160;36.002;2023-01-30T06:58:05;97751.00;;;-1.40;76.51
75424;BME280;64005;55.160;36.002;2023-01-30T07:00:34;97751.78;;;-1.39;76.94
75424;BME280;64005;55.160;36.002;2023-01-30T07:03:04;97751.50;;;-1.38;77.11
75424;BME280;64005;55.160;36.002;2023-01-30T07:05:33;97742.47;;;-1.33;76.89
75424;BME280;64005;55.160;36.002;2023-01-30T07:08:01;97750.41;;;-1.37;76.94
75424;BME280;64005;55.160;36.002;2023-01-30T07:10:29;97760.97;;;-1.30;76.69
75424;BME280;64005;55.160;36.002;2023-01-30T07:12:57;97751.06;;;-1.26;76.89
75424;BME280;64005;55.160;36.002;2023-01-30T07:15:25;97748.31;;;-1.21;76.18
75424;BME280;64005;55.160;36.002;2023-01-30T07:17:52;97728.69;;;-1.23;76.44
75424;BME280;64005;55.160;36.002;2023-01-30T07:20:20;97725.06;;;-1.18;76.22
75424;BME280;64005;55.160;36.002;2023-01-30T07:22:53;97711.50;;;-1.24;76.43
75424;BME280;64005;55.160;36.002;2023-01-30T07:25:22;97706.78;;;-1.18;76.60
75424;BME280;64005;55.160;36.002;2023-01-30T07:27:50;97720.31;;;-1.08;75.92
75424;BME280;64005;55.160;36.002;2023-01-30T07:30:18;97721.13;;;-1.07;76.45
75424;BME280;64005;55.160;36.002;2023-01-30T07:32:49;97719.22;;;-1.07;76.60
75424;BME280;64005;55.160;36.002;2023-01-30T07:35:16;97722.16;;;-1.03;75.75
75424;BME280;64005;55.160;36.002;2023-01-30T07:37:45;97720.25;;;-1.03;75.86
75424;BME280;64005;55.160;36.002;2023-01-30T07:40:15;97721.28;;;-0.99;76.13
75424;BME280;64005;55.160;36.002;2023-01-30T07:42:43;97712.72;;;-0.92;76.32
75424;BME280;64005;55.160;36.002;2023-01-30T07:45:21;97712.59;;;-0.82;76.12
75424;BME280;64005;55.160;36.002;2023-01-30T07:47:49;97710.97;;;-0.64;75.57
75424;BME280;64005;55.160;36.002;2023-01-30T07:50:16;97710.53;;;-0.53;75.00
75424;BME280;64005;55.160;36.002;2023-01-30T07:52:44;97709.38;;;-0.47;75.24
75424;BME280;64005;55.160;36.002;2023-01-30T07:55:12;97697.47;;;-0.37;75.16
75424;BME280;64005;55.160;36.002;2023-01-30T07:57:41;97700.81;;;-0.26;74.95
75424;BME280;64005;55.160;36.002;2023-01-30T08:00:10;97700.69;;;-0.16;75.29
75424;BME280;64005;55.160;36.002;2023-01-30T08:02:37;97699.19;;;-0.09;75.04
75424;BME280;64005;55.160;36.002;2023-01-30T08:05:05;97701.03;;;-0.04;74.90
75424;BME280;64005;55.160;36.002;2023-01-30T08:07:33;97684.84;;;-0.01;74.94
75424;BME280;64005;55.160;36.002;2023-01-30T08:10:00;97702.28;;;0.17;74.24
75424;BME280;64005;55.160;36.002;2023-01-30T08:12:29;97681.03;;;0.28;73.92
75424;BME280;64005;55.160;36.002;2023-01-30T08:14:59;97694.81;;;0.23;74.69
75424;BME280;64005;55.160;36.002;2023-01-30T08:17:26;97694.19;;;0.12;74.79
75424;BME280;64005;55.160;36.002;2023-01-30T08:19:54;97685.84;;;0.04;74.20
75424;BME280;64005;55.160;36.002;2023-01-30T08:22:21;97693.09;;;-0.06;74.49
75424;BME280;64005;55.160;36.002;2023-01-30T08:24:49;97692.69;;;-0.13;74.80
75424;BME280;64005;55.160;36.002;2023-01-30T08:27:16;97687.00;;;-0.16;75.38
75424;BME280;64005;55.160;36.002;2023-01-30T08:29:44;97677.41;;;-0.14;74.57
75424;BME280;64005;55.160;36.002;2023-01-30T08:32:13;97675.69;;;-0.10;74.20
75424;BME280;64005;55.160;36.002;2023-01-30T08:34:42;97672.16;;;-0.10;74.82
75424;BME280;64005;55.160;36.002;2023-01-30T08:37:09;97668.03;;;-0.08;73.97
75424;BME280;64005;55.160;36.002;2023-01-30T08:39:37;97667.69;;;-0.06;74.51
75424;BME280;64005;55.160;36.002;2023-01-30T08:42:04;97670.28;;;0.04;73.71
75424;BME280;64005;55.160;36.002;2023-01-30T08:44:32;97647.06;;;0.02;74.41
75424;BME280;64005;55.160;36.002;2023-01-30T08:46:59;97666.19;;;0.02;73.89
75424;BME280;64005;55.160;36.002;2023-01-30T08:49:28;97662.97;;;-0.01;73.70
75424;BME280;64005;55.160;36.002;2023-01-30T08:51:56;97652.03;;;-0.01;73.93
75424;BME280;64005;55.160;36.002;2023-01-30T08:54:23;97642.28;;;-0.07;73.73
75424;BME280;64005;55.160;36.002;2023-01-30T08:56:51;97629.94;;;-0.04;74.68
75424;BME280;64005;55.160;36.002;2023-01-30T08:59:19;97632.28;;;0.03;74.34
75424;BME280;64005;55.160;36.002;2023-01-30T09:01:46;97629.84;;;0.01;73.46
75424;BME280;64005;55.160;36.002;2023-01-30T09:04:14;97633.72;;;0.00;73.69
75424;BME280;64005;55.160;36.002;2023-01-30T09:06:43;97625.00;;;-0.02;74.22
75424;BME280;64005;55.160;36.002;2023-01-30T09:09:10;97626.41;;;-0.05;73.78
75424;BME280;64005;55.160;36.002;2023-01-30T09:11:38;97617.38;;;-0.05;73.56
75424;BME280;64005;55.160;36.002;2023-01-30T09:14:05;97618.50;;;-0.06;73.48
75424;BME280;64005;55.160;36.002;2023-01-30T09:16:33;97606.75;;;-0.07;73.66
75424;BME280;64005;55.160;36.002;2023-01-30T09:19:00;97614.16;;;-0.07;73.75
75424;BME280;64005;55.160;36.002;2023-01-30T09:21:28;97603.72;;;-0.05;74.00
75424;BME280;64005;55.160;36.002;2023-01-30T09:23:58;97601.00;;;-0.05;74.07
75424;BME280;64005;55.160;36.002;2023-01-30T09:28:54;97582.66;;;-0.05;73.55
75424;BME280;64005;55.160;36.002;2023-01-30T09:31:22;97587.25;;;0.00;73.53
75424;BME280;64005;55.160;36.002;2023-01-30T09:33:49;97574.88;;;0.03;74.32
75424;BME280;64005;55.160;36.002;2023-01-30T09:36:16;97573.19;;;0.07;74.00
75424;BME280;64005;55.160;36.002;2023-01-30T09:38:44;97571.44;;;0.11;73.15
75424;BME280;64005;55.160;36.002;2023-01-30T09:41:34;97566.78;;;0.11;74.00
75424;BME280;64005;55.160;36.002;2023-01-30T09:44:31;97561.75;;;0.18;73.01
75424;BME280;64005;55.160;36.002;2023-01-30T09:47:09;97553.31;;;0.15;73.65
75424;BME280;64005;55.160;36.002;2023-01-30T09:49:39;97550.59;;;0.15;73.61
75424;BME280;64005;55.160;36.002;2023-01-30T09:52:19;97550.69;;;0.23;73.50
75424;BME280;64005;55.160;36.002;2023-01-30T09:54:51;97546.53;;;0.26;73.73
75424;BME280;64005;55.160;36.002;2023-01-30T09:57:23;97551.59;;;0.32;73.12
75424;BME280;64005;55.160;36.002;2023-01-30T09:59:55;97517.69;;;0.20;73.56
75424;BME280;64005;55.160;36.002;2023-01-30T10:02:40;97539.75;;;0.37;73.06
75424;BME280;64005;55.160;36.002;2023-01-30T10:05:11;97529.09;;;0.35;73.54
75424;BME280;64005;55.160;36.002;2023-01-30T10:07:53;97541.25;;;0.43;72.89
75424;BME280;64005;55.160;36.002;2023-01-30T10:10:36;97498.31;;;0.30;72.47
75424;BME280;64005;55.160;36.002;2023-01-30T10:13:29;97497.00;;;0.27;72.73
75424;BME280;64005;55.160;36.002;2023-01-30T10:16:07;97515.00;;;0.42;72.53
75424;BME280;64005;55.160;36.002;2023-01-30T10:18:46;97516.94;;;0.42;73.10
75424;BME280;64005;55.160;36.002;2023-01-30T10:21:27;97518.75;;;0.46;72.33
75424;BME280;64005;55.160;36.002;2023-01-30T10:24:23;97512.16;;;0.47;72.62
75424;BME280;64005;55.160;36.002;2023-01-30T10:26:55;97510.22;;;0.48;72.64
75424;BME280;64005;55.160;36.002;2023-01-30T10:32:10;97459.44;;;0.33;72.92
75424;BME280;64005;55.160;36.002;2023-01-30T10:34:43;97448.53;;;0.19;73.19
75424;BME280;64005;55.160;36.002;2023-01-30T10:37:16;97482.81;;;0.39;72.79
75424;BME280;64005;55.160;36.002;2023-01-30T10:39:50;97488.16;;;0.44;73.22
75424;BME280;64005;55.160;36.002;2023-01-30T10:42:24;97487.34;;;0.44;72.77
75424;BME280;64005;55.160;36.002;2023-01-30T10:44:59;97455.56;;;0.34;73.35
75424;BME280;64005;55.160;36.002;2023-01-30T10:47:37;97474.25;;;0.54;72.90
75424;BME280;64005;55.160;36.002;2023-01-30T10:50:14;97477.56;;;0.65;72.42
75424;BME280;64005;55.160;36.002;2023-01-30T10:52:47;97470.84;;;0.71;72.83
75424;BME280;64005;55.160;36.002;2023-01-30T10:55:26;97464.28;;;0.72;72.62
75424;BME280;64005;55.160;36.002;2023-01-30T10:58:01;97463.75;;;0.70;72.54
75424;BME280;64005;55.160;36.002;2023-01-30T11:00:35;97441.34;;;0.68;72.62
75424;BME280;64005;55.160;36.002;2023-01-30T11:03:16;97394.41;;;0.30;72.40
75424;BME280;64005;55.160;36.002;2023-01-30T11:05:48;97446.34;;;0.66;72.95
75424;BME280;64005;55.160;36.002;2023-01-30T11:08:22;97407.47;;;0.33;72.56
75424;BME280;64005;55.160;36.002;2023-01-30T11:10:51;97437.38;;;0.52;72.40
75424;BME280;64005;55.160;36.002;2023-01-30T11:13:21;97439.91;;;0.48;72.73
75424;BME280;64005;55.160;36.002;2023-01-30T11:15:55;97441.34;;;0.46;72.76
75424;BME280;64005;55.160;36.002;2023-01-30T11:18:24;97375.03;;;0.04;73.26
75424;BME280;64005;55.160;36.002;2023-01-30T11:21:00;97365.75;;;-0.09;73.07
75424;BME280;64005;55.160;36.002;2023-01-30T11:23:34;97429.00;;;0.34;73.36
75424;BME280;64005;55.160;36.002;2023-01-30T11:26:02;97415.19;;;0.17;72.91
75424;BME280;64005;55.160;36.002;2023-01-30T11:28:35;97420.34;;;0.32;73.24
75424;BME280;64005;55.160;36.002;2023-01-30T11:31:16;97424.56;;;0.38;73.49
75424;BME280;64005;55.160;36.002;2023-01-30T11:33:44;97414.53;;;0.34;73.12
75424;BME280;64005;55.160;36.002;2023-01-30T11:36:24;97416.66;;;0.37;73.34
75424;BME280;64005;55.160;36.002;2023-01-30T11:38:58;97412.59;;;0.34;72.57
75424;BME280;64005;55.160;36.002;2023-01-30T11:41:26;97417.25;;;0.34;72.61
75424;BME280;64005;55.160;36.002;2023-01-30T11:43:59;97418.06;;;0.34;73.24
75424;BME280;64005;55.160;36.002;2023-01-30T11:46:33;97404.59;;;0.38;72.61
75424;BME280;64005;55.160;36.002;2023-01-30T11:49:04;97403.00;;;0.37;72.62
75424;BME280;64005;55.160;36.002;2023-01-30T11:51:37;97395.72;;;0.32;72.82
75424;BME280;64005;55.160;36.002;2023-01-30T11:54:11;97397.50;;;0.37;72.28
75424;BME280;64005;55.160;36.002;2023-01-30T11:56:44;97391.84;;;0.33;72.13
75424;BME280;64005;55.160;36.002;2023-01-30T11:59:22;97378.41;;;0.23;72.48
75424;BME280;64005;55.160;36.002;2023-01-30T12:02:01;97362.44;;;0.17;72.63
75424;BME280;64005;55.160;36.002;2023-01-30T12:04:29;97393.50;;;0.21;72.38
75424;BME280;64005;55.160;36.002;2023-01-30T12:07:05;97387.56;;;0.19;72.92
75424;BME280;64005;55.160;36.002;2023-01-30T12:09:34;97382.13;;;0.05;72.54
75424;BME280;64005;55.160;36.002;2023-01-30T12:12:07;97376.34;;;0.07;73.53
75424;BME280;64005;55.160;36.002;2023-01-30T12:14:51;97373.41;;;0.03;73.30
75424;BME280;64005;55.160;36.002;2023-01-30T12:17:30;97338.63;;;-0.19;72.69
75424;BME280;64005;55.160;36.002;2023-01-30T12:20:04;97352.78;;;-0.03;72.35
75424;BME280;64005;55.160;36.002;2023-01-30T12:22:43;97327.22;;;-0.21;73.41
75424;BME280;64005;55.160;36.002;2023-01-30T12:25:15;97281.53;;;-0.43;72.71
75424;BME280;64005;55.160;36.002;2023-01-30T12:27:51;97351.03;;;0.01;73.14
75424;BME280;64005;55.160;36.002;2023-01-30T12:30:31;97337.28;;;0.06;72.22
75424;BME280;64005;55.160;36.002;2023-01-30T12:33:04;97343.66;;;0.02;72.75
75424;BME280;64005;55.160;36.002;2023-01-30T12:38:21;97301.31;;;-0.23;72.52
75424;BME280;64005;55.160;36.002;2023-01-30T12:41:01;97339.63;;;-0.01;72.64
75424;BME280;64005;55.160;36.002;2023-01-30T12:46:34;97317.00;;;-0.15;73.34
75424;BME280;64005;55.160;36.002;2023-01-30T12:52:09;97315.91;;;-0.28;73.62
75424;BME280;64005;55.160;36.002;2023-01-30T12:54:44;97333.13;;;-0.27;73.03
75424;BME280;64005;55.160;36.002;2023-01-30T12:57:23;97329.25;;;-0.26;72.89
75424;BME280;64005;55.160;36.002;2023-01-30T13:00:05;97330.06;;;-0.26;72.91
75424;BME280;64005;55.160;36.002;2023-01-30T13:03:09;97318.81;;;-0.24;73.37
75424;BME280;64005;55.160;36.002;2023-01-30T13:05:51;97326.84;;;-0.28;73.32
75424;BME280;64005;55.160;36.002;2023-01-30T13:08:32;97318.31;;;-0.26;72.93
75424;BME280;64005;55.160;36.002;2023-01-30T13:11:14;97315.59;;;-0.26;73.68
75424;BME280;64005;55.160;36.002;2023-01-30T13:13:51;97307.72;;;-0.28;72.77
75424;BME280;64005;55.160;36.002;2023-01-30T13:16:30;97311.34;;;-0.32;73.79
75424;BME280;64005;55.160;36.002;2023-01-30T13:19:05;97292.59;;;-0.48;73.66
75424;BME280;64005;55.160;36.002;2023-01-30T13:21:43;97300.31;;;-0.27;73.36
75424;BME280;64005;55.160;36.002;2023-01-30T13:24:20;97297.38;;;-0.31;73.01
75424;BME280;64005;55.160;36.002;2023-01-30T13:26:52;97284.44;;;-0.39;73.54
75424;BME280;64005;55.160;36.002;2023-01-30T13:29:26;97296.56;;;-0.31;72.82
75424;BME280;64005;55.160;36.002;2023-01-30T13:31:58;97291.63;;;-0.29;73.82